createdAt,value
2018-03-06T00:00:35.265Z,86.06
2018-03-06T00:03:04.823Z,87.01
2018-03-06T00:05:34.113Z,87.31
2018-03-06T00:08:03.721Z,88.28
2018-03-06T00:10:33.226Z,87.58
2018-03-06T00:13:02.832Z,87.89
2018-03-06T00:15:32.365Z,87.50
2018-03-06T00:18:01.723Z,87.15
2018-03-06T00:20:31.034Z,88.92
2018-03-06T00:23:00.551Z,89.79
2018-03-06T00:25:29.646Z,89.07
2018-03-06T00:27:58.954Z,88.27
2018-03-06T00:30:28.562Z,89.20
2018-03-06T00:32:57.761Z,88.98
2018-03-06T00:35:27.413Z,88.65
2018-03-06T00:37:56.800Z,88.57
2018-03-06T00:40:25.972Z,88.74
2018-03-06T00:42:55.261Z,88.04
2018-03-06T00:45:25.665Z,87.81
2018-03-06T00:47:55.253Z,87.98
2018-03-06T00:50:24.558Z,88.00
2018-03-06T00:52:53.802Z,87.47
2018-03-06T00:55:23.107Z,87.90
2018-03-06T00:57:52.598Z,86.92
2018-03-06T01:00:22.011Z,87.39
2018-03-06T01:02:51.375Z,86.96
2018-03-06T01:05:20.502Z,87.30
2018-03-06T01:07:49.553Z,87.61
2018-03-06T01:10:18.938Z,86.88
2018-03-06T01:12:48.003Z,87.19
2018-03-06T01:15:17.296Z,87.25
2018-03-06T01:17:46.337Z,86.16
2018-03-06T01:20:15.644Z,86.86
2018-03-06T01:22:44.889Z,87.04
2018-03-06T01:25:14.290Z,87.10
2018-03-06T01:27:44.055Z,86.61
2018-03-06T01:30:13.285Z,87.16
2018-03-06T01:32:42.457Z,88.35
2018-03-06T01:35:11.607Z,88.42
2018-03-06T01:37:40.793Z,88.89
2018-03-06T01:40:10.137Z,88.50
2018-03-06T01:42:39.392Z,88.34
2018-03-06T01:45:08.661Z,88.12
2018-03-06T01:47:38.041Z,87.98
2018-03-06T01:50:07.400Z,87.87
2018-03-06T01:52:36.949Z,87.60
2018-03-06T01:55:06.818Z,87.59
2018-03-06T01:57:36.045Z,87.89
2018-03-06T02:00:05.330Z,88.49
2018-03-06T02:02:34.527Z,87.97
2018-03-06T02:05:03.831Z,88.29
2018-03-06T02:07:32.809Z,88.16
2018-03-06T02:10:02.116Z,88.40
2018-03-06T02:12:31.519Z,88.07
2018-03-06T02:15:00.749Z,88.55
2018-03-06T02:17:30.224Z,88.24
2018-03-06T02:19:59.639Z,88.20
2018-03-06T02:22:28.717Z,88.09
2018-03-06T02:24:57.982Z,88.23
2018-03-06T02:27:27.135Z,88.18
2018-03-06T02:29:56.234Z,89.32
2018-03-06T02:32:25.265Z,89.65
2018-03-06T02:34:54.666Z,89.71
2018-03-06T02:37:24.109Z,90.14
2018-03-06T02:39:53.337Z,90.72
2018-03-06T02:42:22.506Z,90.92
2018-03-06T02:44:51.825Z,90.42
2018-03-06T02:47:21.219Z,90.54
2018-03-06T02:49:50.428Z,90.66
2018-03-06T02:52:19.436Z,91.80
2018-03-06T02:54:48.496Z,91.03
2018-03-06T02:57:18.163Z,91.55
2018-03-06T02:59:47.361Z,91.18
2018-03-06T03:02:16.501Z,90.77
2018-03-06T03:04:45.462Z,91.11
2018-03-06T03:07:14.693Z,91.10
2018-03-06T03:09:43.942Z,91.53
2018-03-06T03:12:13.120Z,91.74
2018-03-06T03:14:42.285Z,92.39
2018-03-06T03:17:11.753Z,92.15
2018-03-06T03:19:41.700Z,92.10
2018-03-06T03:22:10.941Z,91.93
2018-03-06T03:24:40.269Z,92.93
2018-03-06T03:27:09.578Z,93.50
2018-03-06T03:29:38.920Z,94.75
2018-03-06T03:32:08.085Z,93.53
2018-03-06T03:34:37.622Z,93.51
2018-03-06T03:37:07.521Z,93.55
2018-03-06T03:39:36.622Z,93.65
2018-03-06T03:42:05.862Z,93.13
2018-03-06T03:44:35.321Z,93.06
2018-03-06T03:47:04.395Z,94.01
2018-03-06T03:49:33.821Z,94.16
2018-03-06T03:52:03.272Z,94.48
2018-03-06T03:54:32.629Z,94.30
2018-03-06T03:57:01.870Z,95.05
2018-03-06T03:59:31.343Z,94.90
2018-03-06T04:02:00.661Z,94.11
2018-03-06T04:04:29.887Z,93.37
2018-03-06T04:06:59.346Z,94.12
2018-03-06T04:09:28.299Z,94.33
2018-03-06T04:11:57.257Z,95.28
2018-03-06T04:14:26.634Z,94.76
2018-03-06T04:16:55.760Z,94.66
2018-03-06T04:19:25.529Z,95.34
2018-03-06T04:21:54.634Z,96.18
2018-03-06T04:24:23.721Z,96.08
2018-03-06T04:26:52.789Z,95.84
2018-03-06T04:29:22.265Z,95.84
2018-03-06T04:31:51.625Z,95.69
2018-03-06T04:34:20.985Z,95.70
2018-03-06T04:36:50.373Z,95.67
2018-03-06T04:39:19.837Z,96.41
2018-03-06T04:41:49.201Z,96.86
2018-03-06T04:44:18.409Z,96.77
2018-03-06T04:46:47.453Z,96.56
2018-03-06T04:49:16.833Z,97.32
2018-03-06T04:51:46.280Z,96.78
2018-03-06T04:54:15.365Z,96.54
2018-03-06T04:56:44.711Z,96.85
2018-03-06T04:59:14.156Z,96.78
2018-03-06T05:01:43.702Z,96.52
2018-03-06T05:04:12.873Z,96.92
2018-03-06T05:06:42.095Z,96.51
2018-03-06T05:09:11.699Z,96.90
2018-03-06T05:11:40.769Z,95.19
2018-03-06T05:14:09.987Z,96.01
2018-03-06T05:16:39.441Z,96.41
2018-03-06T05:19:08.524Z,94.93
2018-03-06T05:21:37.617Z,95.77
2018-03-06T05:24:07.097Z,95.57
2018-03-06T05:26:36.299Z,95.89
2018-03-06T05:29:05.537Z,97.00
2018-03-06T05:31:34.755Z,96.67
2018-03-06T05:34:03.953Z,96.10
2018-03-06T05:36:32.986Z,96.55
2018-03-06T05:39:02.137Z,97.35
2018-03-06T05:41:31.218Z,97.10
2018-03-06T05:44:00.340Z,97.02
2018-03-06T05:46:29.721Z,96.92
2018-03-06T05:48:59.356Z,97.00
2018-03-06T05:51:28.629Z,96.81
2018-03-06T05:53:58.188Z,97.58
2018-03-06T05:56:27.533Z,97.74
2018-03-06T05:58:56.597Z,97.74
2018-03-06T06:01:26.033Z,98.06
2018-03-06T06:03:55.300Z,98.06
2018-03-06T06:06:24.775Z,98.07
2018-03-06T06:08:54.141Z,98.38
2018-03-06T06:11:23.749Z,98.27
2018-03-06T06:13:52.873Z,97.88
2018-03-06T06:16:22.102Z,97.97
2018-03-06T06:18:51.860Z,97.84
2018-03-06T06:21:21.217Z,98.23
2018-03-06T06:23:50.410Z,98.10
2018-03-06T06:26:20.164Z,97.94
2018-03-06T06:28:49.167Z,97.52
2018-03-06T06:31:18.458Z,97.94
2018-03-06T06:33:47.611Z,97.74
2018-03-06T06:36:17.019Z,98.08
2018-03-06T06:38:46.702Z,97.73
2018-03-06T06:41:16.191Z,98.27
2018-03-06T06:43:45.697Z,98.05
2018-03-06T06:46:14.877Z,98.74
2018-03-06T06:48:44.595Z,98.74
2018-03-06T06:51:13.884Z,97.92
2018-03-06T07:08:18.250Z,96.42
2018-03-06T07:10:47.313Z,95.96
2018-03-06T07:13:16.405Z,96.68
2018-03-06T07:15:45.656Z,96.08
2018-03-06T07:18:14.762Z,96.16
2018-03-06T07:20:43.967Z,97.53
2018-03-06T07:23:13.237Z,97.74
2018-03-06T07:25:42.562Z,97.13
2018-03-06T07:28:11.760Z,96.74
2018-03-06T07:30:40.697Z,96.52
2018-03-06T07:33:12.205Z,96.01
2018-03-06T07:35:41.622Z,96.88
2018-03-06T07:38:10.972Z,96.68
2018-03-06T07:40:40.261Z,96.15
2018-03-06T07:43:09.409Z,96.70
2018-03-06T07:45:39.573Z,96.91
2018-03-06T07:48:08.755Z,96.43
2018-03-06T07:50:38.401Z,96.52
2018-03-06T07:53:07.850Z,96.46
2018-03-06T07:55:38.224Z,96.67
2018-03-06T07:58:07.739Z,97.31
2018-03-06T08:00:37.249Z,97.55
2018-03-06T08:03:06.230Z,97.57
2018-03-06T08:05:35.533Z,96.96
2018-03-06T08:08:04.798Z,97.63
2018-03-06T08:10:34.181Z,96.75
2018-03-06T08:13:03.173Z,97.22
2018-03-06T08:15:32.387Z,97.14
2018-03-06T08:18:02.073Z,96.75
2018-03-06T08:20:31.476Z,97.09
2018-03-06T08:23:01.130Z,97.56
2018-03-06T08:25:30.498Z,97.47
2018-03-06T08:27:59.952Z,96.58
2018-03-06T08:30:29.209Z,96.78
2018-03-06T08:32:59.925Z,96.70
2018-03-06T08:35:29.178Z,95.65
2018-03-06T08:37:58.547Z,96.80
2018-03-06T08:40:27.738Z,97.26
2018-03-06T08:42:57.077Z,96.73
2018-03-06T08:45:27.323Z,96.38
2018-03-06T08:47:56.656Z,96.46
2018-03-06T08:50:26.086Z,96.11
2018-03-06T08:52:55.471Z,96.39
2018-03-06T08:55:24.870Z,96.36
2018-03-06T08:57:54.337Z,95.51
2018-03-06T09:00:23.671Z,95.13
2018-03-06T09:02:53.529Z,95.18
2018-03-06T09:05:22.894Z,95.87
2018-03-06T09:07:52.099Z,96.33
2018-03-06T09:10:21.378Z,95.99
2018-03-06T09:12:50.549Z,95.62
2018-03-06T09:15:19.859Z,95.11
2018-03-06T09:17:49.090Z,95.20
2018-03-06T09:20:18.282Z,94.79
2018-03-06T09:22:47.317Z,94.43
2018-03-06T09:25:16.526Z,94.42
2018-03-06T09:27:45.779Z,93.93
2018-03-06T09:30:15.073Z,93.65
2018-03-06T09:32:44.386Z,93.02
2018-03-06T09:35:13.628Z,93.17
2018-03-06T09:37:42.868Z,95.15
2018-03-06T09:40:11.877Z,94.17
2018-03-06T09:42:41.223Z,91.74
2018-03-06T09:45:10.983Z,93.10
2018-03-06T09:47:40.273Z,93.13
2018-03-06T09:50:09.681Z,92.88
2018-03-06T09:52:38.984Z,90.63
2018-03-06T09:55:08.315Z,90.13
2018-03-06T09:57:37.786Z,90.93
2018-03-06T10:00:07.303Z,90.74
2018-03-06T10:02:36.597Z,91.60
2018-03-06T10:18:15.058Z,92.67
2018-03-06T10:20:44.358Z,90.47
2018-03-06T10:23:13.689Z,89.82
2018-03-06T10:25:43.053Z,93.29
2018-03-06T10:28:12.566Z,94.48
2018-03-06T10:30:41.865Z,96.29
2018-03-06T10:33:11.337Z,92.66
2018-03-06T10:35:40.712Z,92.05
2018-03-06T10:38:09.865Z,92.40
2018-03-06T10:40:39.065Z,94.52
2018-03-06T10:43:08.081Z,95.58
2018-03-06T10:45:37.253Z,96.65
2018-03-06T10:48:06.457Z,96.48
2018-03-06T10:50:35.868Z,96.94
2018-03-06T10:53:05.512Z,96.08
2018-03-06T10:55:34.651Z,96.24
2018-03-06T10:58:03.999Z,95.84
2018-03-06T11:00:38.617Z,96.06
2018-03-06T11:03:07.834Z,95.03
2018-03-06T11:05:37.109Z,92.76
2018-03-06T11:08:06.409Z,94.05
2018-03-06T11:10:35.847Z,96.75
2018-03-06T11:13:04.957Z,96.51
2018-03-06T11:15:34.498Z,96.63
2018-03-06T11:18:03.819Z,97.02
2018-03-06T11:20:33.569Z,95.41
2018-03-06T11:23:03.013Z,96.10
2018-03-06T11:25:32.119Z,89.09
2018-03-06T11:28:01.611Z,90.83
2018-03-06T11:30:30.974Z,93.01
2018-03-06T11:33:00.409Z,93.92
2018-03-06T11:35:29.957Z,95.76
2018-03-06T11:37:59.663Z,92.39
2018-03-06T11:40:28.938Z,90.51
2018-03-06T11:42:58.045Z,89.99
2018-03-06T11:45:27.291Z,86.46
2018-03-06T11:47:56.673Z,84.51
2018-03-06T11:50:26.257Z,90.16
2018-03-06T11:52:55.898Z,91.67
2018-03-06T11:55:25.361Z,92.51
2018-03-06T11:57:55.221Z,92.17
2018-03-06T12:00:24.697Z,91.46
2018-03-06T12:02:53.982Z,91.02
2018-03-06T12:05:23.291Z,91.51
2018-03-06T12:07:52.895Z,93.23
2018-03-06T12:10:22.801Z,93.02
2018-03-06T12:12:52.409Z,94.34
2018-03-06T12:15:21.811Z,92.43
2018-03-06T12:17:51.261Z,94.57
2018-03-06T12:20:20.621Z,94.76
2018-03-06T12:22:49.761Z,95.87
2018-03-06T12:25:19.367Z,95.13
2018-03-06T12:27:48.869Z,95.86
2018-03-06T12:30:17.939Z,94.47
2018-03-06T12:32:47.139Z,94.72
2018-03-06T12:35:16.629Z,94.54
2018-03-06T12:37:45.973Z,95.00
2018-03-06T12:40:16.105Z,94.49
2018-03-06T12:42:45.538Z,94.26
2018-03-06T12:45:14.822Z,94.13
2018-03-06T12:47:44.113Z,93.38
2018-03-06T12:50:13.466Z,93.62
2018-03-06T12:52:42.861Z,93.94
2018-03-06T12:55:12.119Z,93.91
2018-03-06T12:57:41.226Z,93.43
2018-03-06T13:00:10.605Z,93.00
2018-03-06T13:02:40.005Z,92.10
2018-03-06T13:05:09.262Z,92.01
2018-03-06T13:07:38.939Z,92.73
2018-03-06T13:10:08.481Z,92.52
2018-03-06T13:12:37.714Z,92.12
2018-03-06T13:15:07.242Z,92.09
2018-03-06T13:17:36.525Z,91.71
2018-03-06T13:20:05.889Z,91.44
2018-03-06T13:22:35.289Z,91.23
2018-03-06T13:25:04.701Z,91.19
2018-03-06T13:27:34.033Z,89.72
2018-03-06T13:30:03.701Z,88.61
2018-03-06T13:32:32.857Z,88.02
2018-03-06T13:35:02.130Z,87.60
2018-03-06T13:37:31.296Z,86.95
2018-03-06T13:40:00.701Z,86.39
2018-03-06T13:42:30.013Z,86.65
2018-03-06T13:44:59.347Z,86.44
2018-03-06T13:47:28.780Z,87.10
2018-03-06T13:49:58.237Z,87.28
2018-03-06T13:52:27.617Z,86.34
2018-03-06T13:54:56.913Z,85.78
2018-03-06T13:57:27.092Z,86.18
2018-03-06T13:59:56.477Z,86.11
2018-03-06T14:02:25.679Z,85.48
2018-03-06T14:04:54.669Z,86.43
2018-03-06T14:07:25.677Z,86.29
2018-03-06T14:09:54.765Z,86.61
2018-03-06T14:12:23.965Z,86.24
2018-03-06T14:14:53.269Z,85.66
2018-03-06T14:17:22.481Z,83.58
2018-03-06T14:19:51.976Z,82.23
2018-03-06T14:22:21.307Z,82.30
2018-03-06T14:24:50.428Z,82.03
2018-03-06T14:27:19.617Z,82.95
2018-03-06T14:29:48.967Z,83.24
2018-03-06T14:32:18.525Z,84.18
2018-03-06T14:34:48.285Z,85.17
2018-03-06T14:37:17.334Z,85.99
2018-03-06T14:39:46.477Z,86.92
2018-03-06T14:42:15.677Z,86.62
2018-03-06T14:44:44.932Z,86.60
2018-03-06T14:47:14.195Z,86.44
2018-03-06T14:49:43.685Z,86.54
2018-03-06T14:52:12.779Z,86.54
2018-03-06T14:54:41.722Z,86.47
2018-03-06T14:57:10.781Z,86.11
2018-03-06T14:59:40.118Z,86.35
2018-03-06T15:02:09.463Z,86.51
2018-03-06T15:04:38.869Z,86.65
2018-03-06T15:07:08.150Z,86.06
2018-03-06T15:09:37.391Z,85.93
2018-03-06T15:12:06.773Z,85.63
2018-03-06T15:14:36.295Z,85.21
2018-03-06T15:17:05.581Z,85.75
2018-03-06T15:19:35.234Z,84.35
2018-03-06T15:22:04.955Z,85.87
2018-03-06T15:24:34.458Z,85.52
2018-03-06T15:27:03.731Z,84.78
2018-03-06T15:29:33.209Z,84.39
2018-03-06T15:32:02.827Z,84.67
2018-03-06T15:34:32.057Z,83.15
2018-03-06T15:37:01.300Z,84.17
2018-03-06T15:39:30.441Z,84.60
2018-03-06T15:41:59.821Z,85.13
2018-03-06T15:44:29.217Z,84.76
2018-03-06T15:46:58.977Z,85.54
2018-03-06T15:49:28.645Z,86.20
2018-03-06T15:51:58.345Z,86.45
2018-03-06T15:54:27.653Z,86.82
2018-03-06T15:56:56.947Z,87.16
2018-03-06T15:59:26.679Z,87.65
2018-03-06T16:01:56.270Z,87.37
2018-03-06T16:04:25.787Z,87.80
2018-03-06T16:06:55.222Z,88.14
2018-03-06T16:09:24.840Z,88.44
2018-03-06T16:11:54.327Z,88.53
2018-03-06T16:14:23.494Z,88.45
2018-03-06T16:16:52.992Z,89.35
2018-03-06T16:19:22.621Z,89.77
2018-03-06T16:21:52.023Z,90.23
2018-03-06T16:24:21.628Z,90.56
2018-03-06T16:26:51.283Z,90.77
2018-03-06T16:29:20.634Z,90.90
2018-03-06T16:31:50.006Z,90.92
2018-03-06T16:34:19.411Z,90.95
2018-03-06T16:36:48.602Z,91.37
2018-03-06T16:39:17.741Z,91.38
2018-03-06T16:41:46.970Z,91.09
2018-03-06T16:44:16.461Z,91.82
2018-03-06T16:46:45.515Z,91.39
2018-03-06T16:49:14.789Z,91.96
2018-03-06T16:51:44.442Z,92.64
2018-03-06T16:54:13.631Z,93.26
2018-03-06T16:56:42.806Z,93.58
2018-03-06T16:59:12.173Z,93.60
2018-03-06T17:01:41.719Z,93.21
2018-03-06T17:04:10.974Z,93.39
2018-03-06T17:06:40.444Z,92.86
2018-03-06T17:09:09.551Z,93.42
2018-03-06T17:11:38.827Z,93.16
2018-03-06T17:14:08.182Z,93.28
2018-03-06T17:16:38.378Z,93.33
2018-03-06T17:19:07.869Z,93.25
2018-03-06T17:21:37.471Z,93.20
2018-03-06T17:24:06.560Z,93.73
2018-03-06T17:26:35.837Z,94.20
2018-03-06T17:29:05.115Z,94.16
2018-03-06T17:31:34.618Z,93.85
2018-03-06T17:34:03.737Z,93.99
2018-03-06T17:36:33.339Z,94.35
2018-03-06T17:39:02.765Z,94.50
2018-03-06T17:41:31.955Z,94.09
2018-03-06T17:44:01.746Z,94.78
2018-03-06T17:46:31.076Z,94.61
2018-03-06T17:49:00.558Z,94.68
2018-03-06T17:51:30.466Z,94.39
2018-03-06T17:54:00.144Z,94.67
2018-03-06T17:56:30.255Z,94.44
2018-03-06T17:58:59.481Z,94.81
2018-03-06T18:01:29.054Z,95.00
2018-03-06T18:03:58.177Z,95.39
2018-03-06T18:06:27.802Z,95.60
2018-03-06T18:08:57.318Z,95.60
2018-03-06T18:11:26.665Z,96.15
2018-03-06T18:13:55.965Z,96.01
2018-03-06T18:16:25.577Z,96.39
2018-03-06T18:18:54.726Z,96.30
2018-03-06T18:21:24.145Z,95.47
2018-03-06T18:23:53.101Z,94.92
2018-03-06T18:26:22.379Z,95.49
2018-03-06T18:28:52.414Z,96.06
2018-03-06T18:31:21.725Z,96.24
2018-03-06T18:33:50.926Z,96.22
2018-03-06T18:36:20.322Z,96.80
2018-03-06T18:38:49.707Z,96.20
2018-03-06T18:41:19.293Z,94.58
2018-03-06T18:43:48.811Z,95.39
2018-03-06T18:46:18.312Z,94.28
2018-03-06T18:48:47.814Z,94.33
2018-03-06T18:51:17.009Z,93.87
2018-03-06T18:53:46.269Z,94.64
2018-03-06T18:56:15.597Z,95.54
2018-03-06T18:58:44.578Z,95.67
2018-03-06T19:04:30.477Z,95.17
2018-03-06T19:07:08.631Z,95.89
2018-03-06T19:09:37.573Z,96.47
2018-03-06T19:12:06.715Z,96.65
2018-03-06T19:14:35.960Z,96.57
2018-03-06T19:17:05.187Z,96.83
2018-03-06T19:19:34.389Z,96.72
2018-03-06T19:22:03.503Z,96.57
2018-03-06T19:24:32.741Z,96.59
2018-03-06T19:27:02.091Z,96.71
2018-03-06T19:29:31.509Z,97.18
2018-03-06T19:32:00.766Z,97.50
2018-03-06T19:34:30.212Z,97.65
2018-03-06T19:36:59.518Z,97.55
2018-03-06T19:39:28.893Z,97.66
2018-03-06T19:41:58.189Z,96.76
2018-03-06T19:44:27.850Z,97.33
2018-03-06T19:46:57.025Z,97.78
2018-03-06T19:49:26.128Z,97.54
2018-03-06T19:51:55.397Z,95.91
2018-03-06T19:54:24.457Z,95.59
2018-03-06T19:56:53.634Z,96.36
2018-03-06T19:59:22.581Z,97.16
2018-03-06T20:01:51.715Z,97.34
2018-03-06T20:04:20.926Z,97.49
2018-03-06T20:06:50.222Z,97.99
2018-03-06T20:09:19.343Z,98.14
2018-03-06T20:11:48.614Z,98.18
2018-03-06T20:14:23.550Z,98.36
2018-03-06T20:16:52.531Z,98.71
2018-03-06T20:19:27.820Z,98.16
2018-03-06T20:21:57.130Z,98.22
2018-03-06T20:24:32.125Z,98.20
2018-03-06T20:27:01.298Z,97.58
2018-03-06T20:29:30.501Z,97.54
2018-03-06T20:32:05.250Z,96.28
2018-03-06T20:34:34.743Z,95.46
2018-03-06T20:37:04.238Z,95.18
2018-03-06T20:39:39.127Z,96.86
2018-03-06T20:42:08.369Z,96.09
2018-03-06T20:44:37.794Z,95.77
2018-03-06T20:47:12.591Z,95.74
2018-03-06T20:49:41.706Z,96.16
2018-03-06T20:52:11.286Z,96.49
2018-03-06T20:54:46.173Z,97.36
2018-03-06T20:57:15.453Z,97.32
2018-03-06T20:59:44.675Z,97.18
2018-03-06T21:02:14.158Z,96.95
2018-03-06T21:04:43.553Z,96.95
2018-03-06T21:07:12.847Z,97.18
2018-03-06T21:09:42.271Z,100.00
2018-03-06T21:12:11.358Z,96.63
2018-03-06T21:14:40.706Z,94.23
2018-03-06T21:17:10.254Z,95.08
2018-03-06T21:19:39.901Z,95.04
2018-03-06T21:22:09.161Z,94.92
2018-03-06T21:24:39.030Z,98.52
2018-03-06T21:27:08.681Z,95.51
2018-03-06T21:29:38.100Z,95.35
2018-03-06T21:32:07.565Z,95.89
2018-03-06T21:34:37.073Z,96.03
2018-03-06T21:37:06.361Z,96.25
2018-03-06T21:39:35.551Z,96.07
2018-03-06T21:42:04.820Z,96.51
2018-03-06T21:44:33.978Z,96.42
2018-03-06T21:47:03.269Z,96.32
2018-03-06T21:49:32.401Z,96.03
2018-03-06T21:52:01.464Z,96.20
2018-03-06T21:54:30.695Z,96.70
2018-03-06T21:56:59.770Z,96.76
2018-03-06T21:59:28.980Z,95.83
2018-03-06T22:01:58.291Z,95.94
2018-03-06T22:04:27.601Z,93.83
2018-03-06T22:06:56.924Z,95.16
2018-03-06T22:09:26.140Z,94.07
2018-03-06T22:11:55.503Z,93.85
2018-03-06T22:14:24.585Z,96.07
2018-03-06T22:16:53.730Z,96.36
2018-03-06T22:19:22.934Z,96.75
2018-03-06T22:21:52.277Z,96.90
2018-03-06T22:24:21.521Z,97.06
2018-03-06T22:26:50.916Z,96.99
2018-03-06T22:29:20.039Z,96.91
2018-03-06T22:31:49.218Z,96.70
2018-03-06T22:34:18.636Z,96.78
2018-03-06T22:36:48.188Z,97.06
2018-03-06T22:39:17.803Z,96.97
2018-03-06T22:41:47.401Z,97.40
2018-03-06T22:44:16.640Z,97.28
2018-03-06T22:46:46.223Z,94.83
2018-03-06T22:49:15.489Z,96.03
2018-03-06T22:51:44.544Z,94.30
2018-03-06T22:54:13.823Z,96.04
2018-03-06T22:56:43.205Z,96.26
2018-03-06T22:59:12.310Z,95.63
2018-03-06T23:01:41.485Z,95.75
2018-03-06T23:04:10.797Z,96.38
2018-03-06T23:06:40.033Z,96.35
2018-03-06T23:09:09.404Z,95.71
2018-03-06T23:11:38.705Z,95.88
2018-03-06T23:14:07.813Z,96.06
2018-03-06T23:16:37.101Z,95.67
2018-03-06T23:19:06.343Z,96.13
2018-03-06T23:21:35.493Z,96.47
2018-03-06T23:24:04.897Z,96.62
2018-03-06T23:26:34.505Z,92.62
2018-03-06T23:29:04.174Z,92.36
2018-03-06T23:31:33.313Z,94.61
2018-03-06T23:34:02.739Z,95.91
2018-03-06T23:36:31.883Z,95.87
2018-03-06T23:39:00.973Z,93.94
2018-03-06T23:41:30.209Z,93.41
2018-03-06T23:43:59.667Z,93.69
2018-03-06T23:46:28.955Z,95.07
2018-03-06T23:48:58.161Z,95.74
2018-03-06T23:51:27.547Z,95.63
2018-03-06T23:53:56.926Z,95.91
2018-03-06T23:56:26.217Z,96.91
2018-03-06T23:58:55.929Z,96.78
